Data for 03/03/2016

Time Sea-Level Adjusted Pressure Absolute Pressure Temperature Relative Humidity Dew Point   
(mb) (inHg) (mb) (inHg) (C) (F) (%) (C) (F)
00:05 1019 30.09 848 25.04 0.8 33.4 49 -8.7 16.3
00:10 1019 30.09 848 25.04 0.9 33.6 48 -9 15.8
00:15 1019 30.09 848 25.04 0.6 33.2 50 -8.6 16.5
00:20 1019 30.09 848 25.04 0.7 33.2 51 -8.3 17.1
00:25 1019 30.09 848 25.04 0.5 32.8 53 -8.2 17.3
00:30 1019 30.09 848 25.04 0.2 32.3 52 -8.5 16.7
00:35 1019 30.09 848 25.04 0.3 32.6 52 -8.4 16.8
00:40 1019 30.09 848 25.04 0.5 32.8 51 -8.6 16.6
00:45 1019 30.09 848 25.04 0.7 33.3 49 -8.8 16.2
00:50 1019 30.09 848 25.04 0.8 33.4 50 -8.6 16.5
00:55 1019 30.09 848 25.04 0.7 33.3 50 -8.5 16.7
01:00 1018 30.06 848 25.04 0.5 32.8 51 -8.5 16.8
01:05 1018 30.06 848 25.04 0.4 32.7 51 -8.5 16.7
01:10 1018 30.06 847 25.01 0.2 32.4 51 -8.7 16.4
01:15 1018 30.06 847 25.01 0.2 32.3 52 -8.7 16.4
01:20 1018 30.06 847 25.01 0.1 32.2 53 -8.4 16.8
01:25 1018 30.06 847 25.01 -0.1 31.9 54 -8.4 16.9
01:30 1018 30.06 847 25.01 0 32.1 52 -8.6 16.6
01:35 1018 30.06 847 25.01 0.2 32.3 52 -8.5 16.7
01:40 1018 30.06 847 25.01 0.4 32.6 51 -8.7 16.4
01:45 1018 30.06 847 25.01 0.5 32.9 50 -8.7 16.4
01:50 1018 30.06 847 25.01 0.5 32.9 51 -8.6 16.6
01:55 1018 30.06 847 25.01 0.5 32.9 50 -8.7 16.3
02:00 1018 30.06 847 25.01 0.7 33.2 47 -9.3 15.2
02:05 1018 30.06 847 25.01 1 33.8 46 -9.4 15.1
02:10 1018 30.06 847 25.01 1.1 34 46 -9.3 15.2
02:15 1018 30.06 847 25.01 1.2 34.1 45 -9.6 14.8
02:20 1018 30.06 847 25.01 1.2 34.2 44 -9.7 14.6
02:25 1018 30.06 847 25.01 1.3 34.4 44 -9.7 14.5
02:30 1018 30.06 847 25.01 1.3 34.3 44 -9.8 14.3
02:35 1018 30.06 847 25.01 1.2 34.2 44 -9.8 14.4
02:40 1018 30.06 848 25.04 1.3 34.4 43 -10.1 13.9
02:45 1018 30.06 848 25.04 1.4 34.6 41 -10.4 13.2
02:50 1018 30.06 848 25.04 1.7 35 39 -10.9 12.4
02:55 1018 30.06 848 25.04 2 35.6 37 -11.2 11.8
03:00 1018 30.06 848 25.04 2.2 36 37 -11.1 12.1
03:05 1018 30.06 848 25.04 2.3 36.1 37 -10.9 12.4
03:10 1018 30.06 847 25.01 2.1 35.9 39 -10.4 13.2
03:15 1018 30.06 847 25.01 1.8 35.2 41 -10.2 13.7
03:20 1018 30.06 847 25.01 1.5 34.7 42 -10 14
03:25 1018 30.06 847 25.01 1.4 34.6 43 -9.7 14.5
03:30 1018 30.06 847 25.01 1.2 34.2 44 -9.8 14.4
03:35 1018 30.06 847 25.01 1.2 34.1 43 -10 14.1
03:40 1018 30.06 847 25.01 1.1 34.1 45 -9.6 14.7
03:45 1018 30.06 847 25.01 1.1 34 44 -9.8 14.4
03:50 1018 30.06 847 25.01 1 33.8 44 -9.8 14.4
03:55 1018 30.06 847 25.01 0.9 33.7 45 -9.6 14.7
04:00 1018 30.06 847 25.01 0.7 33.2 46 -9.7 14.6
04:05 1018 30.06 847 25.01 0.6 33.1 45 -9.9 14.1
04:10 1018 30.06 847 25.01 0.7 33.3 44 -10.1 13.8
04:15 1018 30.06 847 25.01 1.1 34 44 -9.8 14.4
04:20 1018 30.06 847 25.01 0.7 33.3 44 -10.3 13.5
04:25 1018 30.06 847 25.01 1 33.7 41 -10.9 12.3
04:30 1017 30.03 847 25.01 1.3 34.3 43 -9.9 14.1
04:35 1017 30.03 847 25.01 1 33.8 42 -10.5 13.1
04:40 1017 30.03 846 24.98 0.9 33.7 43 -10.4 13.3
04:45 1017 30.03 846 24.98 0.8 33.5 43 -10.3 13.5
04:50 1017 30.03 846 24.98 0.8 33.4 43 -10.4 13.3
04:55 1017 30.03 846 24.98 0.8 33.4 43 -10.4 13.3
05:00 1017 30.03 846 24.98 0.8 33.4 43 -10.5 13.2
05:05 1017 30.03 846 24.98 1 33.7 41 -10.9 12.4
05:10 1017 30.03 846 24.98 1.2 34.1 41 -10.8 12.6
05:15 1017 30.03 846 24.98 1.1 34.1 42 -10.4 13.2
05:20 1017 30.03 846 24.98 1.1 34 41 -10.8 12.5
05:25 1016 30 846 24.98 1.4 34.5 40 -10.8 12.5
05:30 1016 30 845 24.95 1.4 34.6 41 -10.4 13.3
05:35 1016 30 845 24.95 1.3 34.4 40 -10.7 12.7
05:40 1016 30 846 24.98 1.5 34.8 40 -10.7 12.7
05:45 1016 30 845 24.95 1.7 35 40 -10.7 12.8
05:50 1016 30 845 24.95 1.7 35.1 39 -10.9 12.4
05:55 1016 30 845 24.95 1.8 35.2 37 -11.3 11.7
06:00 1016 30 845 24.95 2 35.6 37 -11.3 11.6
06:05 1016 30 845 24.95 2.1 35.9 36 -11.6 11.1
06:10 1016 30 845 24.95 2.2 35.9 41 -9.8 14.3
06:15 1016 30 845 24.95 1.7 35 40 -10.7 12.8
06:20 1016 30 845 24.95 1.8 35.2 38 -11.2 11.8
06:25 1016 30 845 24.95 2 35.7 38 -10.8 12.6
06:30 1016 30 845 24.95 1.9 35.4 38 -11 12.3
06:35 1016 30 845 24.95 1.9 35.4 37 -11.5 11.3
06:40 1016 30 845 24.95 2.1 35.7 37 -11.3 11.7
06:45 1016 30 845 24.95 2.3 36.1 34 -12.1 10.3
06:50 1016 30 845 24.95 2.6 36.7 33 -12.1 10.2
06:55 1016 30 845 24.95 2.8 37 32 -12.3 9.9
07:00 1016 30 845 24.95 3 37.4 31 -12.5 9.4
07:05 1016 30 845 24.95 3.3 38 30 -12.6 9.2
07:10 1016 30 845 24.95 3.4 38.1 30 -12.5 9.5
07:15 1016 30 845 24.95 3.3 37.9 31 -12.2 10.1
07:20 1016 30 845 24.95 2.7 36.9 32 -12.3 9.9
07:25 1016 30 845 24.95 2.6 36.8 33 -12.1 10.2
07:30 1016 30 845 24.95 2.6 36.7 33 -12.3 9.8
07:35 1016 30 845 24.95 2.5 36.6 33 -12.3 9.9
07:40 1016 30 845 24.95 2.6 36.6 32 -12.5 9.6
07:45 1016 30 845 24.95 2.7 36.9 32 -12.2 10
07:50 1016 30 845 24.95 2.6 36.7 32 -12.6 9.2
07:55 1016 30 845 24.95 2.5 36.4 35 -11.6 11.1
08:00 1016 30 845 24.95 2 35.6 39 -10.7 12.8
08:05 1016 30 845 24.95 1.5 34.8 40 -10.5 13
08:10 1016 30 845 24.95 1.3 34.4 40 -10.9 12.3
08:15 1016 30 845 24.95 1.9 35.4 34 -12.5 9.5
08:20 1016 30 846 24.98 2.7 36.8 34 -11.8 10.8
08:25 1016 30 846 24.98 2.8 37 33 -11.8 10.7
08:30 1016 30 846 24.98 2.6 36.7 36 -11.1 11.9
08:35 1017 30.03 846 24.98 2.3 36.1 37 -10.9 12.3
08:40 1016 30 846 24.98 1.9 35.5 39 -10.7 12.7
08:45 1016 30 846 24.98 1.7 35.1 39 -10.9 12.4
08:50 1016 30 846 24.98 1.7 35 40 -10.4 13.2
08:55 1016 30 846 24.98 1.7 35 42 -10 14
09:00 1017 30.03 846 24.98 1.7 35 43 -9.7 14.5
09:05 1017 30.03 846 24.98 1.7 35 41 -10.1 13.8
09:10 1016 30 846 24.98 1.7 35 42 -10.1 13.9
09:15 1016 30 846 24.98 1.9 35.4 39 -10.5 13
09:20 1016 30 846 24.98 1.9 35.5 37 -11.2 11.9
09:25 1016 30 846 24.98 2.1 35.8 41 -10 14.1
09:30 1016 30 846 24.98 1.8 35.3 37 -11.2 11.8
09:35 1016 30 846 24.98 2 35.6 38 -10.8 12.6
09:40 1016 30 846 24.98 2 35.6 40 -10.1 13.8
09:45 1016 30 846 24.98 1.9 35.3 43 -9.4 15.1
09:50 1016 30 845 24.95 1.7 35.1 45 -9.1 15.6
09:55 1016 30 845 24.95 1.8 35.2 46 -8.7 16.4
10:00 1016 30 845 24.95 2 35.7 45 -8.7 16.3
10:05 1016 30 845 24.95 2.5 36.4 41 -9.7 14.6
10:10 1016 30 845 24.95 3.2 37.7 38 -9.9 14.3
10:15 1016 30 845 24.95 3.5 38.3 34 -11.1 12.1
10:20 1016 30 845 24.95 3.8 38.8 35 -10.4 13.3
10:25 1016 30 845 24.95 3.6 38.5 38 -9.3 15.2
10:30 1016 30 845 24.95 3.4 38.1 38 -9.5 15
10:35 1016 30 845 24.95 3.5 38.3 38 -9.7 14.6
10:40 1016 30 845 24.95 3.6 38.5 35 -10.3 13.4
10:45 1016 30 845 24.95 3.9 39 36 -9.9 14.2
10:50 1016 30 845 24.95 4 39.3 38 -9.1 15.7
10:55 1016 30 845 24.95 4.2 39.6 34 -10.3 13.5
11:00 1016 30 845 24.95 4.2 39.5 37 -9.4 15.1
11:05 1016 30 845 24.95 4.2 39.5 33 -10.8 12.5
11:10 1016 30 845 24.95 4.5 40.1 33 -10.4 13.3
11:15 1016 30 845 24.95 4.8 40.6 32 -10.7 12.7
11:20 1016 30 845 24.95 5.2 41.3 32 -10.2 13.6
11:25 1016 30 845 24.95 5.5 41.9 31 -10.5 13.1
11:30 1016 30 845 24.95 5.6 42.1 29 -11.3 11.7
11:35 1016 30 845 24.95 5.8 42.5 29 -11 12.2
11:40 1016 30 845 24.95 6.1 43 29 -10.8 12.5
11:45 1016 30 845 24.95 6.2 43.1 28 -10.8 12.5
11:50 1016 30 845 24.95 6.2 43.2 28 -10.8 12.6
11:55 1016 30 845 24.95 6.2 43.2 30 -10.3 13.4
12:00 1016 30 845 24.95 6.3 43.3 30 -10 14
12:05 1016 30 845 24.95 6.3 43.4 29 -10.3 13.4
12:10 1016 30 845 24.95 6.4 43.6 30 -9.9 14.2
12:15 1016 30 845 24.95 6.7 44.1 29 -10.2 13.6
12:20 1016 30 845 24.95 7 44.5 28 -10.3 13.4
12:25 1016 30 845 24.95 7.2 44.9 27 -10.7 12.7
12:30 1016 30 845 24.95 7.4 45.4 26 -10.7 12.7
12:35 1016 30 845 24.95 7.7 45.9 26 -10.5 13
12:40 1016 30 845 24.95 7.9 46.2 26 -10.4 13.2
12:45 1016 30 845 24.95 8.2 46.7 25 -10.8 12.6
12:50 1016 30 845 24.95 8.6 47.4 25 -10.3 13.4
12:55 1016 30 845 24.95 9 48.2 24 -10.5 13.1
13:00 1016 30 845 24.95 9.2 48.6 24 -10.5 13.1
13:05 1016 30 845 24.95 9.7 49.5 23 -10.4 13.2
13:10 1016 30 845 24.95 10.3 50.5 22 -10.4 13.3
13:15 1016 30 845 24.95 10.3 50.5 23 -10.1 13.8
13:20 1016 30 845 24.95 10.4 50.7 22 -10.2 13.6
13:25 1016 30 845 24.95 10.6 51.1 22 -10 14
13:30 1016 30 845 24.95 10.4 50.8 24 -9.5 15
13:35 1016 30 845 24.95 10.8 51.4 24 -9 15.8
13:40 1016 30 845 24.95 10.7 51.2 23 -9.6 14.7
13:45 1016 30 845 24.95 11.1 52 22 -9.8 14.3
13:50 1016 30 845 24.95 11.4 52.6 22 -9.5 14.8
13:55 1016 30 845 24.95 12 53.6 22 -9.2 15.4
14:00 1015 29.97 845 24.95 11.7 53 23 -8.8 16.2
14:05 1015 29.97 844 24.92 12 53.5 23 -8.4 16.8
14:10 1015 29.97 844 24.92 12.2 54 22 -8.7 16.4
14:15 1015 29.97 844 24.92 12.2 54 23 -8.5 16.8
14:20 1015 29.97 844 24.92 12.2 54 23 -8.1 17.4
14:25 1015 29.97 844 24.92 12.5 54.5 25 -7.2 19
14:30 1015 29.97 844 24.92 12.5 54.6 23 -8.2 17.2
14:35 1015 29.97 844 24.92 12.5 54.6 24 -7.6 18.3
14:40 1015 29.97 844 24.92 12.5 54.6 24 -7.5 18.4
14:45 1015 29.97 844 24.92 12.6 54.6 25 -7.1 19.2
14:50 1015 29.97 844 24.92 12.5 54.4 25 -7 19.4
14:55 1015 29.97 844 24.92 12.3 54.2 25 -7 19.4
15:00 1015 29.97 844 24.92 12.4 54.3 25 -6.9 19.5
15:05 1015 29.97 844 24.92 12.5 54.5 25 -7 19.4
15:10 1015 29.97 844 24.92 12.4 54.4 25 -6.8 19.7
15:15 1015 29.97 844 24.92 12.3 54.2 24 -7.5 18.6
15:20 1015 29.97 844 24.92 12.3 54.1 25 -7.1 19.2
15:25 1015 29.97 844 24.92 12.2 54 25 -7.1 19.2
15:30 1015 29.97 844 24.92 12.2 53.9 26 -7 19.4
15:35 1015 29.97 844 24.92 12.1 53.8 25 -7.1 19.1
15:40 1015 29.97 844 24.92 12 53.6 27 -6.6 20.2
15:45 1015 29.97 844 24.92 11.8 53.2 27 -6.7 20
15:50 1015 29.97 844 24.92 11.6 52.9 27 -6.9 19.5
15:55 1015 29.97 844 24.92 11.5 52.8 26 -7.2 19
16:00 1015 29.97 844 24.92 11.5 52.6 25 -7.8 17.9
16:05 1015 29.97 844 24.92 11.4 52.6 25 -8 17.7
16:10 1015 29.97 844 24.92 11.4 52.6 25 -7.8 18
16:15 1015 29.97 844 24.92 11.4 52.5 25 -7.8 17.9
16:20 1015 29.97 844 24.92 11.4 52.5 26 -7.6 18.3
16:25 1015 29.97 844 24.92 11.4 52.4 25 -8 17.6
16:30 1015 29.97 844 24.92 11.5 52.6 24 -8.2 17.2
16:35 1015 29.97 844 24.92 11.5 52.7 24 -8.4 16.9
16:40 1015 29.97 844 24.92 11.5 52.8 24 -8.5 16.8
16:45 1015 29.97 844 24.92 11.6 52.9 24 -8.2 17.3
16:50 1015 29.97 844 24.92 11.5 52.8 24 -8.4 16.8
16:55 1015 29.97 844 24.92 11.4 52.6 24 -8.3 17
17:00 1015 29.97 844 24.92 11.5 52.6 25 -8.1 17.4
17:05 1015 29.97 844 24.92 11.5 52.6 25 -8 17.6
17:10 1015 29.97 844 24.92 11.9 53.3 24 -8.2 17.3
17:15 1015 29.97 844 24.92 12.2 54 24 -7.9 17.7
17:20 1015 29.97 844 24.92 12.4 54.2 24 -7.6 18.3
17:25 1015 29.97 844 24.92 12.7 54.8 24 -7.3 18.9
17:30 1015 29.97 844 24.92 12.7 54.8 25 -6.8 19.7
17:35 1015 29.97 844 24.92 12.8 55.1 24 -7 19.4
17:40 1015 29.97 844 24.92 13 55.4 24 -7 19.5
17:45 1015 29.97 844 24.92 12.8 55.1 24 -7.4 18.7
17:50 1015 29.97 844 24.92 12.8 55 23 -7.9 17.8
17:55 1015 29.97 844 24.92 12.9 55.2 22 -8.3 17.1
18:00 1015 29.97 844 24.92 12.6 54.7 22 -8.4 16.8
18:05 1015 29.97 844 24.92 12.5 54.5 22 -8.5 16.7
18:10 1015 29.97 844 24.92 12.7 54.8 22 -8.4 16.8
18:15 1015 29.97 844 24.92 13 55.4 22 -8.1 17.4
18:20 1015 29.97 844 24.92 12.9 55.1 22 -8.2 17.3
18:25 1015 29.97 844 24.92 12.5 54.4 23 -8.3 17.1
18:30 1015 29.97 844 24.92 12 53.7 23 -8.4 17
18:35 1015 29.97 844 24.92 11.8 53.2 24 -8 17.7
18:40 1015 29.97 844 24.92 11.3 52.3 26 -7.3 18.9
18:45 1015 29.97 844 24.92 10.9 51.6 29 -6.6 20.1
18:50 1015 29.97 845 24.95 10.7 51.3 30 -6.2 20.8
18:55 1015 29.97 845 24.95 10.6 51.2 31 -5.9 21.3
19:00 1015 29.97 845 24.95 10.5 50.9 32 -5.3 22.4
19:05 1016 30 845 24.95 10.3 50.6 35 -4.5 24
19:10 1016 30 845 24.95 10.1 50.1 38 -3.5 25.7
19:15 1016 30 845 24.95 9.5 49 45 -1.9 28.5
19:20 1016 30 845 24.95 8.9 48 47 -1.8 28.8
19:25 1016 30 845 24.95 8.7 47.6 49 -1.6 29.2
19:30 1016 30 845 24.95 8.5 47.3 49 -1.6 29
19:35 1016 30 845 24.95 8.4 47.2 49 -1.6 29.1
19:40 1016 30 845 24.95 8.3 46.9 50 -1.5 29.2
19:45 1016 30 845 24.95 8.1 46.6 50 -1.7 29
19:50 1016 30 845 24.95 8.1 46.6 51 -1.3 29.6
19:55 1016 30 846 24.98 7.8 46 55 -0.7 30.7
20:00 1016 30 845 24.95 7.3 45.2 57 -0.5 31
20:05 1016 30 846 24.98 7 44.7 58 -0.6 30.9
20:10 1017 30.03 846 24.98 6.7 44 62 -0.1 31.8
20:15 1017 30.03 846 24.98 6.3 43.4 64 -0 32
20:20 1017 30.03 847 25.01 5.9 42.6 65 -0.1 31.8
20:25 1018 30.06 847 25.01 5.5 41.9 69 0.3 32.5
20:30 1018 30.06 847 25.01 5.2 41.4 71 0.3 32.6
20:35 1018 30.06 847 25.01 4.9 40.8 71 -0 32
20:40 1018 30.06 847 25.01 4.5 40.1 73 0 32.1
20:45 1018 30.06 847 25.01 4.2 39.6 73 -0.2 31.6
20:50 1018 30.06 847 25.01 4.1 39.4 74 -0.2 31.6
20:55 1018 30.06 847 25.01 4 39.2 75 -0 31.9
21:00 1018 30.06 848 25.04 3.9 39 75 -0 31.9
21:05 1019 30.09 848 25.04 3.9 38.9 75 -0.3 31.5
21:10 1019 30.09 848 25.04 3.8 38.9 73 -0.6 31
21:15 1019 30.09 848 25.04 3.9 39 73 -0.5 31.1
21:20 1019 30.09 848 25.04 3.9 39.1 70 -1 30.2
21:25 1019 30.09 848 25.04 4 39.2 70 -1 30.2
21:30 1019 30.09 848 25.04 4 39.3 71 -0.8 30.5
21:35 1019 30.09 849 25.07 4.1 39.3 71 -0.7 30.7
21:40 1019 30.09 849 25.07 4 39.3 71 -0.7 30.7
21:45 1019 30.09 849 25.07 4 39.2 67 -1.5 29.2
21:50 1019 30.09 849 25.07 4 39.2 63 -2.4 27.7
21:55 1019 30.09 848 25.04 4 39.3 61 -2.7 27.1
22:00 1019 30.09 848 25.04 4 39.2 62 -2.6 27.3
22:05 1019 30.09 849 25.07 3.9 39 64 -2.3 27.9
22:10 1019 30.09 849 25.07 3.7 38.7 65 -2.2 28.1
22:15 1019 30.09 849 25.07 3.6 38.4 66 -2.2 28
22:20 1019 30.09 849 25.07 3.5 38.2 65 -2.4 27.7
22:25 1019 30.09 849 25.07 3.4 38.2 66 -2.2 28
22:30 1019 30.09 848 25.04 3.3 37.9 67 -2.2 28
22:35 1019 30.09 848 25.04 3.1 37.6 68 -2.3 27.8
22:40 1019 30.09 849 25.07 3 37.4 73 -1.4 29.4
22:45 1019 30.09 849 25.07 2.7 36.8 76 -1.2 29.8
22:50 1019 30.09 849 25.07 2.4 36.3 78 -1.1 30
22:55 1019 30.09 848 25.04 2.4 36.3 77 -1.2 29.9
23:00 1019 30.09 848 25.04 2.4 36.3 74 -1.7 29
23:05 1019 30.09 848 25.04 2.6 36.7 72 -1.9 28.7
23:10 1019 30.09 848 25.04 2.8 37 72 -1.8 28.8
23:15 1019 30.09 848 25.04 2.8 37.1 73 -1.6 29.1
23:20 1019 30.09 848 25.04 2.8 37 75 -1.2 29.8
23:25 1019 30.09 848 25.04 2.7 36.8 75 -1.4 29.6
23:30 1019 30.09 848 25.04 2.5 36.5 75 -1.4 29.4
23:35 1019 30.09 848 25.04 2.3 36.2 77 -1.3 29.6
23:40 1019 30.09 848 25.04 2.2 35.9 77 -1.5 29.3
23:45 1019 30.09 848 25.04 2.3 36.1 76 -1.4 29.4
23:50 1019 30.09 848 25.04 2.4 36.3 76 -1.4 29.4
23:55 1019 30.09 848 25.04 2.4 36.4 76 -1.3 29.6
24:00 1019 30.09 848 25.04 2.3 36.1 77 -1.4 29.5